Time;durP1;ratioP1;P1;durP2;ratioP2;P2;SDS_P1;SDS_P2;PMS_P1;PMS_P2;Temp;Humidity;BMP_temperature;BMP_pressure;BME280_temperature;BME280_humidity;BME280_pressure;Samples;Min_cycle;Max_cycle;Signal;HPM_P1;HPM_P2
2022/09/23 00:02:19;;;;;;;6.47;5.87;;;;;;;9.95;81.64;153913.75;5034568;28;20453;-84
2022/09/23 00:04:47;;;;;;;7.30;6.23;;;;;;;10.09;81.48;153949.97;5034123;28;20443;-83
2022/09/23 00:07:14;;;;;;;7.07;6.47;;;;;;;10.02;82.08;153931.88;5051331;28;20818;-83
2022/09/23 00:09:41;;;;;;;6.20;5.40;;;;;;;9.91;82.16;153904.69;5034539;28;20455;-83
2022/09/23 00:12:09;;;;;;;7.40;5.87;;;;;;;9.94;82.06;153911.16;5017748;28;20435;-83
2022/09/23 00:14:37;;;;;;;6.93;6.07;;;;;;;9.88;82.40;153895.59;5052386;28;20470;-83
2022/09/23 00:17:04;;;;;;;6.80;6.20;;;;;;;9.79;82.57;153874.91;5033843;28;20442;-83
2022/09/23 00:19:31;;;;;;;7.10;6.00;;;;;;;9.70;82.79;153851.63;5035115;28;21006;-83
2022/09/23 00:21:59;;;;;;;5.90;5.30;;;;;;;9.63;83.05;153833.53;5040367;28;20435;-83
2022/09/23 00:24:26;;;;;;;6.53;5.33;;;;;;;9.67;82.71;153843.88;5032811;28;20439;-83
2022/09/23 00:26:53;;;;;;;8.23;5.57;;;;;;;9.70;82.21;153850.34;5030278;28;20447;-83
2022/09/23 00:29:19;;;;;;;5.30;4.80;;;;;;;9.78;82.07;153872.34;5022829;28;20964;-83
2022/09/23 00:31:46;;;;;;;6.73;5.90;;;;;;;9.77;82.00;153869.75;5051919;28;20423;-83
2022/09/23 00:34:13;;;;;;;5.90;5.30;;;;;;;9.69;82.36;153849.03;5051783;28;20457;-83
2022/09/23 00:36:40;;;;;;;6.50;5.70;;;;;;;9.71;82.06;153854.25;5033475;28;20470;-83
2022/09/23 00:39:08;;;;;;;7.00;6.30;;;;;;;9.63;82.69;153832.25;5039894;28;20480;-83
2022/09/23 00:41:35;;;;;;;6.00;5.50;;;;;;;9.58;82.95;153819.31;5014757;28;20444;-83
2022/09/23 00:44:02;;;;;;;7.20;5.83;;;;;;;9.59;82.97;153823.16;5031800;28;20436;-83
2022/09/23 00:46:33;;;;;;;6.50;5.90;;;;;;;9.54;83.82;153808.94;5031891;28;20431;-83
2022/09/23 00:49:04;;;;;;;6.87;6.17;;;;;;;9.50;83.96;153798.59;5030545;28;20447;-83
2022/09/23 00:51:34;;;;;;;7.00;5.73;;;;;;;9.45;84.94;153785.69;5031830;28;20813;-83
2022/09/23 00:54:01;;;;;;;7.00;6.30;;;;;;;9.36;85.67;153763.66;5031806;28;20447;-83
2022/09/23 00:56:30;;;;;;;6.20;5.70;;;;;;;9.29;86.57;153745.59;5032319;28;20525;-83
2022/09/23 00:58:57;;;;;;;6.73;6.03;;;;;;;9.25;88.11;153735.22;5031687;28;20439;-83
2022/09/23 01:01:24;;;;;;;8.10;7.23;;;;;;;9.22;89.33;153727.44;5013855;28;20441;-83
2022/09/23 01:03:51;;;;;;;7.30;6.30;;;;;;;9.19;90.13;153719.69;5016521;28;20439;-83
2022/09/23 01:06:18;;;;;;;6.50;5.90;;;;;;;9.12;90.21;153702.88;5053334;28;20921;-83
2022/09/23 01:08:45;;;;;;;8.00;7.20;;;;;;;9.08;90.07;153692.50;5034352;28;20449;-83
2022/09/23 01:11:29;;;;;;;8.20;7.40;;;;;;;9.06;89.75;153687.34;5051651;28;20427;-83
2022/09/23 01:14:02;;;;;;;6.97;6.27;;;;;;;9.04;90.35;153680.88;5049495;28;20438;-83
2022/09/23 01:16:33;;;;;;;7.20;6.50;;;;;;;9.00;90.67;153671.81;5050619;28;20455;-83
2022/09/23 01:19:10;;;;;;;8.73;7.83;;;;;;;8.98;91.51;153666.66;5032758;28;20807;-83
2022/09/23 01:21:46;;;;;;;7.67;6.93;;;;;;;8.92;91.62;153651.13;5051466;28;20418;-84
2022/09/23 01:24:46;;;;;;;7.63;6.60;;;;;;;8.93;91.46;153652.44;5033395;28;20461;-84
2022/09/23 01:27:43;;;;;;;8.40;7.60;;;;;;;8.92;91.30;153651.13;5021689;28;20436;-84
2022/09/23 01:30:49;;;;;;;7.30;6.60;;;;;;;8.90;90.91;153644.66;5025392;28;20550;-84
2022/09/23 01:33:23;;;;;;;7.17;6.43;;;;;;;8.88;91.36;153639.50;4974106;28;20536;-84
2022/09/23 01:36:09;;;;;;;8.30;7.20;;;;;;;8.83;92.08;153626.59;5004182;28;20893;-84
2022/09/23 01:38:42;;;;;;;8.27;7.40;;;;;;;8.80;93.08;153618.81;5050762;28;20480;-84
2022/09/23 01:41:16;;;;;;;8.80;7.90;;;;;;;8.75;93.36;153605.91;5033674;28;20443;-84
2022/09/23 01:43:48;;;;;;;9.83;8.87;;;;;;;8.72;93.06;153598.13;5032130;28;20466;-84
2022/09/23 01:46:18;;;;;;;7.90;7.13;;;;;;;8.71;93.54;153595.56;5028170;28;20435;-84
2022/09/23 01:48:50;;;;;;;8.20;7.40;;;;;;;8.71;93.26;153595.56;5030904;28;20447;-84
2022/09/23 01:51:23;;;;;;;8.03;7.33;;;;;;;8.70;93.13;153594.28;5031442;28;20423;-84
2022/09/23 01:53:54;;;;;;;8.63;7.77;;;;;;;8.70;92.68;153592.97;5036698;28;20474;-84
2022/09/23 01:56:24;;;;;;;9.50;8.30;;;;;;;8.67;92.68;153585.22;5047019;28;20477;-84
2022/09/23 01:58:56;;;;;;;8.70;7.73;;;;;;;8.65;93.12;153580.03;5050570;28;20467;-85
2022/09/23 02:01:28;;;;;;;7.17;6.47;;;;;;;8.62;93.28;153573.59;5049968;28;20454;-85
2022/09/23 02:04:00;;;;;;;9.10;8.20;;;;;;;8.62;92.84;153573.59;5022017;28;20542;-84
2022/09/23 02:06:29;;;;;;;7.50;6.87;;;;;;;8.62;93.53;153572.28;5031622;28;20531;-84
2022/09/23 02:08:59;;;;;;;9.30;7.20;;;;;;;8.62;93.34;153572.28;5032229;28;20455;-85
2022/09/23 02:11:26;;;;;;;8.83;7.87;;;;;;;8.58;93.31;153564.53;5050471;28;20423;-84
2022/09/23 02:13:54;;;;;;;8.07;7.07;;;;;;;8.56;93.68;153559.38;5032265;28;20451;-84
2022/09/23 02:16:27;;;;;;;10.00;7.87;;;;;;;8.57;92.90;153561.97;5050796;28;20474;-85
2022/09/23 02:18:59;;;;;;;9.07;8.13;;;;;;;8.58;92.87;153563.22;5050263;28;20446;-84
2022/09/23 02:21:29;;;;;;;7.77;7.07;;;;;;;8.57;93.28;153560.66;5032213;28;20435;-84
2022/09/23 02:24:00;;;;;;;7.10;6.40;;;;;;;8.53;92.87;153551.59;5049398;28;20447;-84
2022/09/23 02:26:30;;;;;;;8.53;7.73;;;;;;;8.49;93.56;153539.97;5029707;28;20956;-84
2022/09/23 02:29:07;;;;;;;7.30;6.60;;;;;;;8.47;92.89;153536.06;5029878;28;20431;-85
2022/09/23 02:31:39;;;;;;;9.10;7.40;;;;;;;8.45;93.07;153530.91;5013023;28;20447;-84
2022/09/23 02:34:15;;;;;;;9.20;7.30;;;;;;;8.42;92.92;153523.16;5031209;28;20486;-85
2022/09/23 02:36:48;;;;;;;8.53;7.63;;;;;;;8.41;92.64;153520.59;5031816;28;20462;-85
2022/09/23 02:39:16;;;;;;;8.20;7.40;;;;;;;8.39;93.79;153515.38;5028808;28;20906;-84
2022/09/23 02:41:50;;;;;;;7.10;6.40;;;;;;;8.37;93.91;153510.22;5029310;28;20809;-85
2022/09/23 02:44:19;;;;;;;8.87;7.97;;;;;;;8.36;94.52;153506.38;5030502;28;20916;-84
2022/09/23 02:46:49;;;;;;;8.80;7.90;;;;;;;8.32;94.76;153497.31;5033097;28;20424;-84
2022/09/23 02:49:20;;;;;;;8.57;7.73;;;;;;;8.28;95.07;153485.69;5016267;28;20446;-84
2022/09/23 02:51:47;;;;;;;10.20;8.23;;;;;;;8.22;95.64;153470.13;5028565;28;20456;-84
2022/09/23 02:54:16;;;;;;;9.40;8.03;;;;;;;8.15;96.50;153452.03;5020773;28;20557;-83
2022/09/23 02:56:43;;;;;;;9.00;8.10;;;;;;;8.11;96.76;153443.00;5053261;28;20588;-84
2022/09/23 02:59:10;;;;;;;8.07;7.33;;;;;;;8.12;97.26;153445.59;5053488;28;20435;-84
2022/09/23 03:01:45;;;;;;;8.47;7.57;;;;;;;8.11;97.96;153443.00;5015685;28;20427;-85
2022/09/23 03:04:18;;;;;;;9.73;8.03;;;;;;;8.10;97.50;153440.38;5033391;28;20431;-84
2022/09/23 03:06:52;;;;;;;7.90;7.17;;;;;;;8.09;97.65;153437.81;5044598;28;20800;-85
2022/09/23 03:09:22;;;;;;;8.40;7.10;;;;;;;8.05;97.35;153427.47;5025470;28;20892;-83
2022/09/23 03:11:55;;;;;;;8.30;7.60;;;;;;;8.03;97.32;153421.00;5034102;28;20440;-85
2022/09/23 03:14:28;;;;;;;9.07;8.17;;;;;;;7.99;98.50;153412.00;5036373;28;20917;-85
2022/09/23 03:16:59;;;;;;;8.93;8.13;;;;;;;7.94;98.24;153400.34;5016626;28;20542;-84
2022/09/23 03:19:32;;;;;;;8.57;7.67;;;;;;;7.95;97.76;153401.63;5015852;28;20438;-84
2022/09/23 03:22:04;;;;;;;8.23;7.43;;;;;;;7.97;98.81;153406.78;5033900;28;20420;-85
2022/09/23 03:24:33;;;;;;;9.13;8.20;;;;;;;7.97;98.49;153406.78;5040200;28;20451;-84
2022/09/23 03:27:03;;;;;;;8.50;7.70;;;;;;;7.93;98.52;153397.78;5036161;28;21006;-84
2022/09/23 03:29:31;;;;;;;8.93;8.10;;;;;;;7.94;98.89;153399.09;4999568;28;20498;-83
2022/09/23 03:31:58;;;;;;;8.80;7.90;;;;;;;7.88;98.87;153384.88;5015732;28;20502;-84
2022/09/23 03:34:30;;;;;;;9.40;8.47;;;;;;;7.86;99.35;153379.66;5050833;28;20447;-84
2022/09/23 03:37:01;;;;;;;8.73;7.60;;;;;;;7.83;99.69;153370.66;5039594;28;20467;-84
2022/09/23 03:39:33;;;;;;;8.70;7.90;;;;;;;7.78;99.80;153357.72;5053293;28;20438;-84
2022/09/23 03:42:03;;;;;;;8.83;7.93;;;;;;;7.78;99.76;153358.97;5035507;28;20435;-84
2022/09/23 03:44:31;;;;;;;8.30;7.50;;;;;;;7.78;99.91;153357.72;5020275;28;20497;-84
2022/09/23 03:46:59;;;;;;;8.83;7.93;;;;;;;7.81;99.43;153366.75;5015478;28;20446;-84
2022/09/23 03:49:27;;;;;;;10.60;7.53;;;;;;;7.79;99.28;153360.28;5033274;28;20513;-84
2022/09/23 03:51:56;;;;;;;8.63;7.83;;;;;;;7.78;99.68;153357.72;5032590;28;20428;-84
2022/09/23 03:54:23;;;;;;;8.93;8.07;;;;;;;7.77;100.00;153356.44;5021685;28;20509;-84
2022/09/23 03:56:49;;;;;;;8.90;8.10;;;;;;;7.79;99.73;153360.28;5051598;28;20475;-84
2022/09/23 03:59:16;;;;;;;8.53;7.70;;;;;;;7.75;100.00;153351.28;5052447;28;20439;-84
2022/09/23 04:01:44;;;;;;;8.63;7.33;;;;;;;7.77;100.00;153355.13;5033850;28;20435;-85
2022/09/23 04:04:11;;;;;;;10.80;8.30;;;;;;;7.73;99.76;153346.06;5050639;28;20453;-84
2022/09/23 04:06:38;;;;;;;8.87;7.97;;;;;;;7.72;100.00;153343.53;5016347;28;20821;-85
2022/09/23 04:09:06;;;;;;;9.80;8.33;;;;;;;7.66;100.00;153328.00;5019971;28;20797;-84
2022/09/23 04:11:32;;;;;;;8.47;7.40;;;;;;;7.66;100.00;153328.00;5032192;28;20424;-84
2022/09/23 04:13:59;;;;;;;8.80;7.90;;;;;;;7.65;99.85;153325.41;5026565;28;20507;-84
2022/09/23 04:16:26;;;;;;;8.47;7.70;;;;;;;7.67;99.20;153329.31;5034640;28;20977;-85
2022/09/23 04:18:52;;;;;;;7.90;7.00;;;;;;;7.63;100.00;153320.25;5033859;28;20541;-85
2022/09/23 04:21:19;;;;;;;8.77;7.87;;;;;;;7.62;100.00;153316.41;5049535;28;20474;-85
2022/09/23 04:23:46;;;;;;;8.40;7.60;;;;;;;7.56;100.00;153300.88;5015449;28;20452;-85
2022/09/23 04:26:15;;;;;;;9.33;7.47;;;;;;;7.56;100.00;153300.88;5032060;28;20424;-84
2022/09/23 04:28:41;;;;;;;8.63;7.57;;;;;;;7.56;100.00;153302.19;5031759;28;20507;-84
2022/09/23 04:31:08;;;;;;;7.80;7.10;;;;;;;7.55;100.00;153298.28;5031837;28;20431;-85
2022/09/23 04:33:36;;;;;;;7.70;7.03;;;;;;;7.55;100.00;153298.28;5013789;28;20457;-84
2022/09/23 04:36:03;;;;;;;8.70;7.57;;;;;;;7.56;100.00;153300.88;5014651;28;20538;-85
2022/09/23 04:38:29;;;;;;;8.60;7.80;;;;;;;7.54;100.00;153295.72;5011412;28;20476;-85
2022/09/23 04:40:56;;;;;;;8.43;7.63;;;;;;;7.55;100.00;153299.59;5011928;28;20467;-85
2022/09/23 04:43:24;;;;;;;8.30;7.50;;;;;;;7.53;100.00;153293.13;5041816;28;20511;-85
2022/09/23 04:45:58;;;;;;;7.83;7.13;;;;;;;7.44;100.00;153271.16;5014129;28;21033;-85
2022/09/23 04:48:25;;;;;;;9.20;8.30;;;;;;;7.47;100.00;153277.63;5010865;28;20432;-85
2022/09/23 04:50:51;;;;;;;8.60;7.77;;;;;;;7.43;100.00;153268.59;5011369;28;20447;-85
2022/09/23 04:53:18;;;;;;;9.00;8.10;;;;;;;7.40;100.00;153259.53;5015440;28;20453;-85
2022/09/23 04:55:46;;;;;;;10.37;9.27;;;;;;;7.40;100.00;153259.53;5027594;28;20442;-85
2022/09/23 04:58:12;;;;;;;10.00;9.00;;;;;;;7.38;100.00;153254.41;5010500;28;20472;-85
2022/09/23 05:00:40;;;;;;;12.63;9.13;;;;;;;7.36;100.00;153250.50;5015956;28;20457;-85
2022/09/23 05:03:07;;;;;;;9.87;8.87;;;;;;;7.32;100.00;153241.47;5010787;28;20532;-85
2022/09/23 05:05:34;;;;;;;9.70;8.73;;;;;;;7.31;100.00;153238.88;5028649;28;20550;-85
2022/09/23 05:08:01;;;;;;;9.33;8.43;;;;;;;7.30;100.00;153236.34;5031417;28;20547;-85
2022/09/23 05:10:27;;;;;;;10.07;9.13;;;;;;;7.30;100.00;153236.34;5023461;28;20460;-85
2022/09/23 05:12:54;;;;;;;10.00;8.20;;;;;;;7.26;100.00;153225.97;5026822;28;20448;-85
2022/09/23 05:15:21;;;;;;;10.50;9.50;;;;;;;7.25;100.00;153222.13;5011707;28;20445;-85
2022/09/23 05:17:49;;;;;;;10.13;9.17;;;;;;;7.21;100.00;153213.06;5009634;28;20568;-85
2022/09/23 05:20:16;;;;;;;8.97;8.07;;;;;;;7.21;100.00;153213.06;5009625;28;20460;-85
2022/09/23 05:22:43;;;;;;;10.43;8.77;;;;;;;7.22;100.00;153214.38;5022273;28;20456;-85
2022/09/23 05:25:10;;;;;;;11.03;9.47;;;;;;;7.23;100.00;153218.22;5011955;28;20558;-85
2022/09/23 05:27:37;;;;;;;12.30;9.93;;;;;;;7.23;100.00;153216.91;5010454;28;20809;-85
2022/09/23 05:30:04;;;;;;;11.77;9.37;;;;;;;7.22;100.00;153215.66;5019866;28;20552;-85
2022/09/23 05:32:31;;;;;;;11.37;10.17;;;;;;;7.24;100.00;153219.53;5001723;28;20456;-85
2022/09/23 05:35:00;;;;;;;10.53;9.40;;;;;;;7.25;100.00;153223.38;5020344;28;20849;-84
2022/09/23 05:37:27;;;;;;;10.60;9.50;;;;;;;7.28;100.00;153231.13;5023853;28;20484;-84
2022/09/23 05:39:53;;;;;;;16.37;10.40;;;;;;;7.31;100.00;153238.88;5013039;28;20445;-84
2022/09/23 05:42:20;;;;;;;10.30;9.17;;;;;;;7.32;100.00;153241.47;5021548;28;20569;-84
2022/09/23 05:44:48;;;;;;;10.33;8.87;;;;;;;7.35;100.00;153247.94;5030255;28;20530;-74
2022/09/23 05:47:15;;;;;;;9.83;8.83;;;;;;;7.38;100.00;153254.41;5027890;28;20833;-74
2022/09/23 05:49:41;;;;;;;10.10;9.10;;;;;;;7.36;100.00;153251.78;5021933;28;20538;-84
2022/09/23 05:52:09;;;;;;;10.20;9.20;;;;;;;7.42;100.00;153264.69;5030814;28;20443;-86
2022/09/23 05:54:36;;;;;;;10.83;9.83;;;;;;;7.44;100.00;153271.16;5032043;28;20447;-85
2022/09/23 05:57:04;;;;;;;12.07;8.37;;;;;;;7.52;100.00;153290.56;5030481;28;20475;-86
2022/09/23 05:59:31;;;;;;;12.13;9.23;;;;;;;7.59;100.00;153308.63;5029961;28;20451;-86
2022/09/23 06:01:58;;;;;;;9.50;8.60;;;;;;;7.65;100.00;153325.41;5029639;28;20435;-86
2022/09/23 06:04:25;;;;;;;12.00;9.33;;;;;;;7.75;100.00;153349.97;5021947;28;20456;-86
2022/09/23 06:06:52;;;;;;;11.40;8.80;;;;;;;7.81;100.00;153365.50;5029614;28;20455;-86
2022/09/23 06:09:20;;;;;;;10.37;8.83;;;;;;;7.90;100.00;153388.72;5017606;28;20461;-87
2022/09/23 06:11:46;;;;;;;10.87;8.90;;;;;;;8.01;100.00;153417.16;5011583;28;20480;-86
2022/09/23 06:14:13;;;;;;;10.33;9.33;;;;;;;8.16;100.00;153455.91;5006443;28;20463;-86
2022/09/23 06:16:40;;;;;;;15.30;10.00;;;;;;;8.36;100.00;153506.38;5015900;28;20579;-86
2022/09/23 06:19:08;;;;;;;10.00;8.73;;;;;;;8.65;100.00;153580.03;5026245;28;20460;-86
2022/09/23 06:21:36;;;;;;;10.80;8.70;;;;;;;8.97;100.00;153662.81;5013278;28;20455;-85
2022/09/23 06:24:03;;;;;;;13.70;8.73;;;;;;;9.20;100.00;153722.28;5046132;28;20461;-86
2022/09/23 06:26:33;;;;;;;10.13;9.10;;;;;;;9.40;97.53;153772.75;5033479;28;20965;-86
2022/09/23 06:29:01;;;;;;;10.03;9.03;;;;;;;9.58;96.36;153820.56;5030104;28;20540;-86
2022/09/23 06:31:28;;;;;;;10.00;8.70;;;;;;;9.82;96.01;153882.69;5014527;28;20448;-85
2022/09/23 06:33:55;;;;;;;10.80;9.47;;;;;;;10.01;94.45;153930.56;5014373;28;20437;-86
2022/09/23 06:36:22;;;;;;;11.90;8.60;;;;;;;10.18;93.90;153974.63;5027310;28;20882;-86
2022/09/23 06:38:49;;;;;;;9.37;8.10;;;;;;;10.33;92.41;154012.16;5032505;28;20475;-85
2022/09/23 06:41:16;;;;;;;10.13;8.00;;;;;;;10.57;92.13;154074.31;5015474;28;20451;-86
2022/09/23 06:43:44;;;;;;;15.13;8.60;;;;;;;10.83;91.43;154141.63;5014089;28;20432;-85
2022/09/23 06:46:14;;;;;;;9.40;7.50;;;;;;;11.09;89.78;154206.41;5033825;28;20450;-86
2022/09/23 06:48:42;;;;;;;9.53;7.87;;;;;;;11.28;88.73;154255.66;5035083;28;20424;-85
2022/09/23 06:51:11;;;;;;;9.70;8.00;;;;;;;11.50;87.38;154313.94;5034184;28;20447;-85
2022/09/23 06:53:38;;;;;;;9.20;8.07;;;;;;;11.55;86.02;154325.59;5033568;28;20505;-85
2022/09/23 06:56:06;;;;;;;10.90;8.00;;;;;;;11.61;86.15;154341.16;5014007;28;20452;-85
2022/09/23 06:58:34;;;;;;;7.93;7.13;;;;;;;11.75;86.08;154377.50;5039803;28;20466;-85
2022/09/23 07:01:02;;;;;;;11.77;7.60;;;;;;;11.88;85.45;154411.19;5046722;28;20443;-85
2022/09/23 07:03:30;;;;;;;13.70;7.60;;;;;;;12.02;84.21;154447.44;5034658;28;20444;-85
2022/09/23 07:05:57;;;;;;;8.30;7.53;;;;;;;12.28;83.75;154512.31;5032916;28;20943;-85
2022/09/23 07:08:25;;;;;;;11.40;8.20;;;;;;;12.55;82.66;154582.34;5031744;28;20428;-85
2022/09/23 07:10:52;;;;;;;11.33;7.50;;;;;;;12.78;80.78;154641.97;5031602;28;20539;-85
2022/09/23 07:13:19;;;;;;;7.97;7.20;;;;;;;13.02;79.38;154704.25;5033651;28;20497;-85
2022/09/23 07:15:49;;;;;;;10.47;7.10;;;;;;;13.30;78.69;154775.63;5035154;28;20436;-85
2022/09/23 07:18:17;;;;;;;7.80;7.00;;;;;;;13.47;76.98;154819.78;5021550;28;20981;-85
2022/09/23 07:20:45;;;;;;;7.70;6.87;;;;;;;13.62;76.39;154857.38;5036375;28;20462;-84
2022/09/23 07:23:12;;;;;;;23.77;7.03;;;;;;;14.01;76.03;154958.63;5034688;28;20784;-85
2022/09/23 07:25:38;;;;;;;7.57;6.83;;;;;;;14.03;75.68;154965.13;5031630;28;20451;-84
2022/09/23 07:28:05;;;;;;;7.93;6.27;;;;;;;14.23;73.95;155015.78;5012676;28;20532;-84
2022/09/23 07:30:35;;;;;;;8.50;7.53;;;;;;;14.27;72.98;155026.13;5029864;28;20459;-84
2022/09/23 07:33:02;;;;;;;7.77;7.00;;;;;;;14.57;73.02;155104.13;5014642;28;20436;-84
2022/09/23 07:35:30;;;;;;;8.57;6.60;;;;;;;14.94;72.01;155197.66;5012984;28;20441;-84
2022/09/23 07:37:57;;;;;;;7.47;6.77;;;;;;;15.08;70.00;155234.03;5023370;28;20490;-84
2022/09/23 07:40:23;;;;;;;6.30;5.70;;;;;;;15.08;70.32;155235.34;5034284;28;20440;-84
2022/09/23 07:42:50;;;;;;;6.93;6.33;;;;;;;15.20;69.53;155265.19;5053574;28;20797;-84
2022/09/23 07:45:17;;;;;;;6.20;5.60;;;;;;;15.33;68.80;155298.97;5031993;28;20467;-83
2022/09/23 07:47:44;;;;;;;6.73;6.03;;;;;;;15.36;67.70;155306.78;5031661;28;20424;-83
2022/09/23 07:50:11;;;;;;;8.07;5.80;;;;;;;15.32;67.96;155296.41;5028542;28;20526;-83
2022/09/23 07:52:42;;;;;;;8.33;6.43;;;;;;;15.29;67.41;155288.63;5050952;28;20438;-84
2022/09/23 07:55:09;;;;;;;7.37;6.53;;;;;;;15.19;69.42;155262.63;5049518;28;20446;-84
2022/09/23 07:57:36;;;;;;;7.20;6.00;;;;;;;15.16;68.87;155254.81;5040629;28;20524;-84
2022/09/23 08:00:04;;;;;;;7.03;6.33;;;;;;;15.11;68.63;155243.16;5029604;28;20557;-84
2022/09/23 08:02:38;;;;;;;15.27;6.40;;;;;;;15.04;69.34;155223.63;5032452;28;20489;-84
2022/09/23 08:05:05;;;;;;;6.20;5.63;;;;;;;15.01;68.49;155215.88;5032344;28;20432;-84
2022/09/23 08:07:33;;;;;;;7.30;5.80;;;;;;;14.88;70.15;155182.09;5042040;28;20444;-84
2022/09/23 08:10:01;;;;;;;7.13;5.93;;;;;;;14.76;70.36;155150.88;5038963;28;20448;-83
2022/09/23 08:12:29;;;;;;;6.60;5.63;;;;;;;14.65;70.11;155123.59;5015287;28;20512;-83
2022/09/23 08:14:55;;;;;;;8.43;6.60;;;;;;;14.59;70.77;155108.00;5014531;28;20490;-84
2022/09/23 08:17:22;;;;;;;7.77;6.30;;;;;;;14.57;71.25;155104.13;5048371;28;20578;-84
2022/09/23 08:19:49;;;;;;;8.13;5.87;;;;;;;14.45;71.28;155072.97;5033165;28;20443;-84
2022/09/23 08:22:16;;;;;;;5.97;5.13;;;;;;;14.43;72.34;155067.75;5052066;28;20443;-84
2022/09/23 08:24:42;;;;;;;6.10;5.57;;;;;;;14.43;71.22;155066.44;5025547;28;20458;-84
2022/09/23 08:27:11;;;;;;;6.73;6.03;;;;;;;14.36;71.85;155049.59;5041695;28;20454;-84
2022/09/23 08:29:38;;;;;;;6.70;6.10;;;;;;;14.40;73.31;155058.69;5038852;28;20455;-84
2022/09/23 08:32:04;;;;;;;6.20;5.60;;;;;;;14.42;73.71;155065.19;5020187;28;20451;-84
2022/09/23 08:34:31;;;;;;;6.17;5.67;;;;;;;14.45;71.88;155072.97;5046203;28;20471;-84
2022/09/23 08:36:58;;;;;;;6.13;5.57;;;;;;;14.47;70.87;155078.16;5046239;28;20459;-83
2022/09/23 08:39:24;;;;;;;6.50;5.57;;;;;;;14.50;71.93;155085.97;5033889;28;20973;-84
2022/09/23 08:42:03;;;;;;;6.23;5.70;;;;;;;14.64;72.95;155121.00;5051132;28;20454;-84
2022/09/23 08:44:40;;;;;;;5.90;5.30;;;;;;;14.90;69.92;155187.28;5034047;28;20772;-84
2022/09/23 08:47:10;;;;;;;5.73;5.20;;;;;;;14.80;69.98;155162.56;5025438;28;20456;-84
2022/09/23 08:49:41;;;;;;;8.03;5.97;;;;;;;14.85;69.95;155175.53;5031687;28;20436;-84
2022/09/23 08:52:13;;;;;;;6.53;5.93;;;;;;;14.80;71.15;155161.31;5019905;28;20448;-84
2022/09/23 08:54:41;;;;;;;7.03;6.40;;;;;;;14.71;72.31;155139.22;5042480;28;20449;-84
2022/09/23 08:57:10;;;;;;;6.00;5.33;;;;;;;14.81;70.04;155165.19;5024273;28;20465;-84
2022/09/23 08:59:41;;;;;;;6.70;6.10;;;;;;;14.84;71.65;155172.97;5032781;28;20462;-84
2022/09/23 09:02:14;;;;;;;6.70;6.10;;;;;;;14.89;70.64;155185.97;5033803;28;20453;-84
2022/09/23 09:04:43;;;;;;;6.97;6.27;;;;;;;14.83;70.84;155169.06;5044589;28;20519;-84
2022/09/23 09:07:13;;;;;;;12.30;6.70;;;;;;;14.94;70.79;155197.66;5014503;28;20451;-84
2022/09/23 09:09:42;;;;;;;8.33;6.13;;;;;;;14.99;69.89;155210.63;5014201;28;20522;-84
2022/09/23 09:12:14;;;;;;;6.73;6.03;;;;;;;15.09;70.42;155236.66;5040746;28;20931;-84
2022/09/23 09:14:47;;;;;;;6.90;6.07;;;;;;;15.07;70.94;155232.72;5027531;28;20447;-84
2022/09/23 09:17:20;;;;;;;6.67;6.10;;;;;;;15.04;71.26;155223.63;5030682;28;21162;-84
2022/09/23 09:19:55;;;;;;;7.10;6.40;;;;;;;15.14;71.63;155250.91;5042283;28;20473;-84
2022/09/23 09:22:40;;;;;;;7.37;5.80;;;;;;;15.10;72.60;155239.22;5035520;28;20462;-84
2022/09/23 09:25:19;;;;;;;6.83;6.17;;;;;;;15.20;72.34;155266.50;5023230;28;20954;-84
2022/09/23 09:27:47;;;;;;;6.23;5.73;;;;;;;15.33;73.33;155298.97;5026891;28;20946;-84
2022/09/23 09:30:16;;;;;;;7.37;6.67;;;;;;;15.46;71.00;155331.56;5042453;28;20447;-84
2022/09/23 09:32:47;;;;;;;6.80;6.20;;;;;;;15.50;70.50;155343.25;5031212;28;20454;-84
2022/09/23 09:35:22;;;;;;;6.10;5.30;;;;;;;15.43;71.49;155325.00;5013745;28;20474;-84
2022/09/23 09:37:49;;;;;;;6.30;5.47;;;;;;;15.41;70.44;155318.53;4994691;28;20476;-84
2022/09/23 09:40:16;;;;;;;7.00;6.13;;;;;;;15.47;70.21;155335.44;5012019;28;20444;-84
2022/09/23 09:42:46;;;;;;;6.07;5.50;;;;;;;15.46;70.22;155331.56;5009958;28;20610;-75
2022/09/23 09:45:23;;;;;;;5.63;5.20;;;;;;;15.77;67.36;155413.47;5021890;28;20448;-75
2022/09/23 09:47:56;;;;;;;5.57;5.00;;;;;;;15.64;67.85;155379.66;5024607;28;20536;-75
2022/09/23 09:50:42;;;;;;;6.60;5.17;;;;;;;15.68;69.71;155388.72;5022355;28;20440;-75
2022/09/23 09:53:15;;;;;;;5.00;4.50;;;;;;;15.72;69.50;155400.47;5008971;28;20452;-75
2022/09/23 09:55:42;;;;;;;5.90;5.20;;;;;;;15.85;68.89;155432.94;5010691;28;20769;-75
2022/09/23 09:58:15;;;;;;;7.40;5.23;;;;;;;15.76;67.88;155410.84;5000308;28;20464;-75
2022/09/23 10:00:45;;;;;;;6.33;5.73;;;;;;;15.79;67.79;155417.34;5011663;28;20499;-75
2022/09/23 10:03:38;;;;;;;6.67;4.50;;;;;;;15.83;68.53;155427.75;5025183;28;20448;-75
2022/09/23 10:06:14;;;;;;;5.60;4.70;;;;;;;15.94;68.04;155455.06;5017847;28;20966;-75
2022/09/23 10:08:41;;;;;;;6.27;4.07;;;;;;;15.93;67.04;155452.44;5016636;28;20448;-75
2022/09/23 10:11:14;;;;;;;5.03;4.47;;;;;;;15.98;68.29;155466.75;5010718;28;20448;-75
2022/09/23 10:13:41;;;;;;;5.27;3.90;;;;;;;16.11;67.22;155499.25;5010202;28;20455;-75
2022/09/23 10:16:09;;;;;;;6.73;5.00;;;;;;;16.17;69.23;155516.16;5010348;28;20463;-76
2022/09/23 10:18:38;;;;;;;7.27;6.67;;;;;;;16.19;68.24;155521.38;5009319;28;20472;-75
2022/09/23 10:21:09;;;;;;;5.07;4.57;;;;;;;16.24;69.36;155534.34;5008502;28;20444;-75
2022/09/23 10:23:40;;;;;;;7.70;5.87;;;;;;;16.23;67.56;155531.75;5017132;28;20514;-75
2022/09/23 10:26:09;;;;;;;4.90;4.40;;;;;;;16.45;66.61;155587.66;5025694;28;20804;-75
2022/09/23 10:28:44;;;;;;;4.67;4.13;;;;;;;16.38;66.16;155569.47;5030208;28;20436;-75
2022/09/23 10:31:14;;;;;;;4.60;4.17;;;;;;;16.33;65.93;155556.47;5027774;28;20451;-75
2022/09/23 10:33:42;;;;;;;4.93;4.53;;;;;;;16.38;66.51;155569.47;5030756;28;20819;-75
2022/09/23 10:36:11;;;;;;;7.30;4.70;;;;;;;16.44;65.96;155585.09;5019556;28;20452;-75
2022/09/23 10:38:38;;;;;;;6.20;4.97;;;;;;;16.35;66.00;155562.97;4988615;28;1115611;-75
2022/09/23 10:46:52;;;;;;;4.90;4.27;;;;;;;16.47;66.05;155592.88;5015933;28;20444;-75
2022/09/23 10:49:45;;;;;;;6.90;4.80;;;;;;;16.47;64.43;155592.88;5032341;28;20493;-75
2022/09/23 10:52:26;;;;;;;4.70;4.30;;;;;;;16.55;67.16;155613.72;5015325;28;20715;-74
2022/09/23 10:55:04;;;;;;;4.53;4.00;;;;;;;16.58;66.76;155620.22;5030267;28;20966;-74
2022/09/23 10:57:41;;;;;;;5.80;4.23;;;;;;;16.66;64.97;155641.03;5031353;28;20797;-74
2022/09/23 11:00:22;;;;;;;6.57;5.03;;;;;;;16.75;65.42;155665.78;5027669;28;20559;-74
2022/09/23 11:03:08;;;;;;;4.33;3.80;;;;;;;16.77;65.44;155670.97;5027421;28;20804;-74
2022/09/23 11:05:38;;;;;;;8.83;4.70;;;;;;;16.74;64.28;155663.16;5034265;28;20531;-74
2022/09/23 11:08:21;;;;;;;4.30;3.90;;;;;;;16.87;64.36;155697.00;5027041;28;20479;-75
2022/09/23 11:11:00;;;;;;;5.03;4.60;;;;;;;17.04;64.08;155739.94;5021251;28;20462;-74
2022/09/23 11:13:40;;;;;;;5.53;4.07;;;;;;;17.20;63.84;155780.28;5018590;28;20470;-75
2022/09/23 11:16:13;;;;;;;4.57;3.90;;;;;;;17.15;63.71;155767.28;5033306;28;20828;-75
2022/09/23 11:18:53;;;;;;;6.30;4.27;;;;;;;17.36;62.50;155821.94;5022642;28;20563;-76
2022/09/23 11:21:38;;;;;;;4.20;3.80;;;;;;;17.35;63.11;155820.63;5007234;28;20464;-76
2022/09/23 11:24:20;;;;;;;4.57;4.13;;;;;;;17.43;61.62;155840.13;5022540;28;20472;-76
2022/09/23 11:26:52;;;;;;;4.90;3.97;;;;;;;17.49;60.90;155855.78;5019438;28;20542;-76
2022/09/23 11:29:36;;;;;;;5.43;4.07;;;;;;;17.32;61.01;155812.81;5011489;28;20439;-76
2022/09/23 11:32:14;;;;;;;7.00;4.30;;;;;;;17.13;64.53;155763.34;5013942;28;20432;-76
2022/09/23 11:34:58;;;;;;;4.87;4.47;;;;;;;16.95;63.10;155717.81;5013376;28;20495;-76
2022/09/23 11:37:28;;;;;;;4.43;4.03;;;;;;;17.12;62.55;155759.47;5026767;28;20481;-75
2022/09/23 11:39:59;;;;;;;4.40;4.00;;;;;;;17.27;63.16;155798.47;5049471;28;20545;-75
2022/09/23 11:42:29;;;;;;;4.37;3.50;;;;;;;17.22;63.96;155785.47;5039401;28;20982;-76
2022/09/23 11:44:58;;;;;;;4.87;4.10;;;;;;;17.27;63.03;155798.47;5033937;28;20439;-75
2022/09/23 11:47:28;;;;;;;6.40;4.37;;;;;;;17.23;62.49;155788.09;5034892;28;20453;-76